Saturday, August 18, 2018, 2:50 AM GMT
Back to Local

CWOD, Normandin

Location: , , Canada Lat: 48.833
Local Time: 2:50 AM GMT ( 2:50 GMT) Lon: -72.55
Time Zone: GMT Elev: 449 ft

Show me the last for .
Show Coded

Time T Td Feel RH Dir Speed Gust Alt SLP Vis Weather Sky Remarks
2018-08-18 02:00 58 57 - 95 200° 2 - - 29.90 0 None
2018-08-18 01:00 60 56 - 87 150° 2 - - 29.90 0 None
2018-08-18 00:00 62 59 - 90 160° 5 - - 29.88 0 None
2018-08-17 23:00 65 60 - 85 160° 2 - - 29.89 0 None
2018-08-17 22:00 66 61 - 84 140° 2 - - 29.89 0 None
2018-08-17 21:00 66 61 - 84 160° 5 - - 29.90 0 None
2018-08-17 20:00 67 61 - 82 150° 6 - - 29.91 0 None
2018-08-17 19:00 68 59 - 72 150° 7 - - 29.92 0 None
2018-08-17 18:00 69 59 - 69 150° 9 - - 29.93 0 None
2018-08-17 17:00 72 55 76 55 140° 6 - - 29.93 0 None
2018-08-17 16:00 72 57 76 59 100° 3 - - 29.94 0 None
2018-08-17 15:00 68 57 - 66 120° 2 - - 29.96 0 None
2018-08-17 14:00 64 53 - 67 160° 3 - - 29.98 0 None
2018-08-17 13:00 59 54 - 81 70° 2 - - 29.99 0 None
2018-08-17 12:00 53 49 - 88 360° 2 - - 30.01 0 None
2018-08-17 11:00 49 48 - 96 - Calm - - 30.01 0 None
2018-08-17 10:00 43 42 40 97 300° 5 - - 30.01 0 None
2018-08-17 09:00 43 42 40 96 310° 5 - - 29.99 0 None
2018-08-17 08:00 44 42 42 90 310° 5 - - 30.00 0 None
2018-08-17 07:00 44 44 43 96 330° 3 - - 30.00 0 None
2018-08-17 06:00 45 44 - 95 320° 2 - - 30.00 0 None
2018-08-17 05:00 48 46 - 92 150° 1 - - 30.01 0 None
2018-08-17 04:00 49 46 - 90 210° 1 - - 30.00 0 None
2018-08-17 03:00 54 49 - 83 180° 2 - - 30.01 0 None

Support USWX by starting your Amazon purchase here.